KRBD/RBD METAR and TAF weather

Enter ICAO airport designator
Station Type Date Time Source
KRBD METAR 2022/06/28 08:53 UTC NOAA

KRBD 280853Z AUTO 12005KT 10SM BKN055 25/16 A3015 RMK AO2 SLP201 T02500161 53002


Station Type Date Time Source
KRBD Decoded METAR 2022/06/28 08:53 UTC NOAA

DALLAS EXECUTIVE AIRPORT, TX, United States (KRBD) 32-41N 096-52W 203M
Jun 28, 2022 - 04:53 AM EDT / 2022.06.28 0853 UTC
Wind: from the ESE (120 degrees) at 6 MPH (5 KT):0
Visibility: 10 mile(s):0
Sky conditions: mostly cloudy
Temperature: 77.0 F (25.0 C)
Dew Point: 61.0 F (16.1 C)
Relative Humidity: 57%
Pressure (altimeter): 30.15 in. Hg (1020 hPa)
Pressure tendency: 0.01 inches (0.2 hPa) higher than three hours ago
ob: KRBD 280853Z AUTO 12005KT 10SM BKN055 25/16 A3015 RMK AO2 SLP201 T02500161 53002
cycle: 9

Station Type Date Time Source
KRBD TAF UTC NOAA

Error!

Example: see airport list